Time;durP1;ratioP1;P1;durP2;ratioP2;P2;SDS_P1;SDS_P2;PMS_P1;PMS_P2;Temp;Humidity;BMP_temperature;BMP_pressure;BME280_temperature;BME280_humidity;BME280_pressure;Samples;Min_cycle;Max_cycle;Signal;HPM_P1;HPM_P2
2022/04/23 00:00:19;;;;;;;15.10;6.38;;;11.20;99.90;;;;;;4968727;28;20174;-59
2022/04/23 00:02:46;;;;;;;22.73;6.50;;;11.20;99.90;;;;;;4969343;28;20102;-60
2022/04/23 00:05:13;;;;;;;21.45;5.95;;;11.20;99.90;;;;;;4968921;28;20055;-60
2022/04/23 00:07:40;;;;;;;24.83;7.80;;;11.20;99.90;;;;;;4968897;28;20105;-57
2022/04/23 00:10:08;;;;;;;19.05;5.93;;;11.20;99.90;;;;;;4969737;28;20086;-58
2022/04/23 00:12:35;;;;;;;27.08;6.75;;;11.30;99.90;;;;;;4968764;28;20061;-58
2022/04/23 00:15:02;;;;;;;21.20;7.22;;;11.30;99.90;;;;;;4969344;28;20089;-58
2022/04/23 00:17:29;;;;;;;18.80;6.25;;;11.30;99.90;;;;;;4969162;28;20077;-58
2022/04/23 00:19:56;;;;;;;20.35;5.63;;;11.30;99.90;;;;;;4968049;28;20059;-58
2022/04/23 00:22:23;;;;;;;24.70;6.03;;;11.20;99.90;;;;;;4968981;28;20130;-58
2022/04/23 00:24:50;;;;;;;13.27;5.47;;;11.20;99.90;;;;;;4969642;28;20047;-57
2022/04/23 00:27:17;;;;;;;24.70;6.45;;;11.30;99.90;;;;;;4969144;28;20537;-58
2022/04/23 00:29:43;;;;;;;21.52;6.22;;;11.20;99.90;;;;;;4968066;28;20138;-58
2022/04/23 00:32:10;;;;;;;26.75;6.88;;;11.30;99.90;;;;;;4968951;28;20042;-62
2022/04/23 00:34:37;;;;;;;20.95;7.57;;;11.30;99.90;;;;;;4969546;28;20057;-60
2022/04/23 00:37:05;;;;;;;17.77;5.70;;;11.30;99.90;;;;;;4969238;28;20165;-58
2022/04/23 00:39:32;;;;;;;22.80;6.90;;;11.30;99.90;;;;;;4969295;28;20078;-57
2022/04/23 00:42:00;;;;;;;16.75;6.50;;;11.20;99.90;;;;;;4969046;28;20133;-58
2022/04/23 00:44:27;;;;;;;18.92;5.35;;;11.30;99.90;;;;;;4969001;28;20097;-58
2022/04/23 00:46:54;;;;;;;26.42;6.60;;;11.30;99.90;;;;;;4969022;28;20055;-58
2022/04/23 00:49:20;;;;;;;24.15;7.15;;;11.30;99.90;;;;;;4968624;28;20533;-57
2022/04/23 00:51:47;;;;;;;18.58;6.43;;;11.30;99.90;;;;;;4968928;28;20067;-58
2022/04/23 00:57:37;;;;;;;19.15;6.00;;;11.30;99.90;;;;;;4977569;28;20089;-56
2022/04/23 01:00:08;;;;;;;21.70;5.78;;;11.20;99.90;;;;;;4993336;28;20521;-58
2022/04/23 01:02:38;;;;;;;18.20;7.25;;;11.30;99.90;;;;;;5001003;28;20046;-54
2022/04/23 01:05:09;;;;;;;21.23;7.13;;;11.40;99.90;;;;;;5006648;28;20049;-57
2022/04/23 01:07:45;;;;;;;19.77;7.90;;;11.30;99.90;;;;;;5011350;28;20517;-56
2022/04/23 01:10:12;;;;;;;20.63;7.28;;;11.40;99.90;;;;;;5006024;28;20400;-54
2022/04/23 01:12:38;;;;;;;19.55;5.80;;;11.40;99.90;;;;;;5006911;28;20038;-55
2022/04/23 01:15:06;;;;;;;25.33;7.30;;;11.30;99.90;;;;;;5008701;28;20052;-55
2022/04/23 01:17:33;;;;;;;20.17;6.78;;;11.30;99.90;;;;;;5010291;28;20057;-56
2022/04/23 01:20:08;;;;;;;19.55;6.30;;;11.30;99.90;;;;;;5001684;28;20069;-58
2022/04/23 01:22:36;;;;;;;17.98;7.03;;;11.30;99.90;;;;;;5009242;28;20088;-56
2022/04/23 01:25:06;;;;;;;20.02;6.57;;;11.30;99.90;;;;;;5008403;28;20073;-56
2022/04/23 01:27:34;;;;;;;23.88;7.65;;;11.20;99.90;;;;;;5008542;28;20050;-58
2022/04/23 01:30:04;;;;;;;24.38;6.60;;;11.20;99.90;;;;;;5010277;28;20300;-56
2022/04/23 01:32:31;;;;;;;18.20;6.85;;;11.20;99.90;;;;;;5007773;28;20472;-57
2022/04/23 01:34:58;;;;;;;22.92;6.45;;;11.20;99.90;;;;;;5004042;28;20109;-58
2022/04/23 01:37:25;;;;;;;22.13;7.10;;;11.20;99.90;;;;;;5002774;28;20069;-57
2022/04/23 01:39:52;;;;;;;18.80;6.53;;;11.20;99.90;;;;;;4323038;28;10000709;-58
2022/04/23 01:42:19;;;;;;;25.15;7.22;;;11.20;99.90;;;;;;5003616;28;20058;-57
2022/04/23 01:44:47;;;;;;;18.55;8.05;;;11.20;99.90;;;;;;5004328;28;20038;-58
2022/04/23 01:47:14;;;;;;;17.15;7.05;;;11.20;99.90;;;;;;5005293;28;20082;-56
2022/04/23 01:49:41;;;;;;;21.10;6.55;;;11.30;99.90;;;;;;4995627;28;20107;-58
2022/04/23 01:52:08;;;;;;;28.30;9.38;;;11.20;99.90;;;;;;4997359;28;20050;-58
2022/04/23 01:54:35;;;;;;;21.63;7.20;;;11.20;99.90;;;;;;4992725;28;20086;-58
2022/04/23 01:57:02;;;;;;;21.08;7.00;;;11.30;99.90;;;;;;4992629;28;20050;-57
2022/04/23 01:59:30;;;;;;;22.50;7.80;;;11.30;99.90;;;;;;4994545;28;20073;-56
2022/04/23 02:01:57;;;;;;;20.35;7.22;;;11.20;99.90;;;;;;5000891;28;20058;-57
2022/04/23 02:04:24;;;;;;;19.55;8.02;;;11.20;99.90;;;;;;5000873;28;20093;-58
2022/04/23 02:06:51;;;;;;;22.17;7.80;;;11.20;99.90;;;;;;5003321;28;20112;-58
2022/04/23 02:09:18;;;;;;;19.92;7.63;;;11.20;99.90;;;;;;5003049;28;20094;-58
2022/04/23 02:11:45;;;;;;;28.85;7.22;;;11.20;99.90;;;;;;5003401;28;20065;-56
2022/04/23 02:14:11;;;;;;;19.15;7.05;;;11.20;99.90;;;;;;4997583;28;20183;-58
2022/04/23 02:16:39;;;;;;;34.00;10.43;;;11.20;99.90;;;;;;4996007;28;20077;-57
2022/04/23 02:19:06;;;;;;;20.90;6.63;;;11.30;99.90;;;;;;4996146;28;20489;-58
2022/04/23 02:21:32;;;;;;;19.58;6.75;;;11.30;99.90;;;;;;4995532;28;20090;-58
2022/04/23 02:24:01;;;;;;;21.58;9.50;;;11.30;99.90;;;;;;5000570;28;20061;-58
2022/04/23 02:26:28;;;;;;;29.17;8.63;;;11.30;99.90;;;;;;5004953;28;20050;-59
2022/04/23 02:28:55;;;;;;;24.42;8.13;;;11.20;99.90;;;;;;5006245;28;20050;-58
2022/04/23 02:31:21;;;;;;;16.85;8.10;;;11.20;99.90;;;;;;5004740;28;20095;-59
2022/04/23 02:33:48;;;;;;;19.08;7.95;;;11.20;99.90;;;;;;5007356;28;20110;-56
2022/04/23 02:36:15;;;;;;;23.25;8.30;;;11.20;99.90;;;;;;5006882;28;20039;-59
2022/04/23 02:38:42;;;;;;;22.05;7.55;;;11.20;99.90;;;;;;5009420;28;20042;-55
2022/04/23 02:41:09;;;;;;;20.85;7.53;;;11.20;99.90;;;;;;5010653;28;20244;-58
2022/04/23 02:43:38;;;;;;;19.80;7.97;;;11.30;99.90;;;;;;4996530;28;20046;-55
2022/04/23 02:46:05;;;;;;;19.35;8.40;;;11.20;99.90;;;;;;4992745;28;20047;-56
2022/04/23 02:48:32;;;;;;;27.25;9.77;;;11.20;99.90;;;;;;5014808;28;20044;-58
2022/04/23 02:50:59;;;;;;;28.15;8.07;;;11.30;99.90;;;;;;5016269;28;20042;-56
2022/04/23 02:53:26;;;;;;;20.15;8.18;;;11.30;99.90;;;;;;5030911;28;20680;-57
2022/04/23 02:55:56;;;;;;;20.40;8.27;;;11.30;99.90;;;;;;5014637;28;20027;-57
2022/04/23 02:58:25;;;;;;;25.95;8.88;;;11.30;99.90;;;;;;5015607;28;20142;-56
2022/04/23 03:00:53;;;;;;;23.52;9.40;;;11.30;99.90;;;;;;5016454;28;20037;-57
2022/04/23 03:03:20;;;;;;;28.27;8.88;;;11.30;99.90;;;;;;5014257;28;20077;-57
2022/04/23 03:05:48;;;;;;;24.45;7.90;;;11.30;99.90;;;;;;5015800;28;20048;-58
2022/04/23 03:08:14;;;;;;;25.98;9.45;;;11.40;99.90;;;;;;5015424;28;20038;-56
2022/04/23 03:10:41;;;;;;;25.00;9.77;;;11.40;99.90;;;;;;5006813;28;20065;-56
2022/04/23 03:13:08;;;;;;;22.30;8.00;;;11.40;99.90;;;;;;5003513;28;20046;-59
2022/04/23 03:15:36;;;;;;;20.42;8.43;;;11.40;99.90;;;;;;5003538;28;20149;-56
2022/04/23 03:18:13;;;;;;;28.75;10.05;;;11.50;99.90;;;;;;5003516;28;20053;-56
2022/04/23 03:20:43;;;;;;;27.45;9.07;;;11.50;99.90;;;;;;5003593;28;20085;-57
2022/04/23 03:23:09;;;;;;;33.58;9.75;;;11.50;99.90;;;;;;5002076;28;20070;-57
2022/04/23 03:25:36;;;;;;;21.77;9.60;;;11.40;99.90;;;;;;5017766;28;20054;-53
2022/04/23 03:28:03;;;;;;;25.50;9.15;;;11.40;99.90;;;;;;5001321;28;20050;-55
2022/04/23 03:30:30;;;;;;;18.90;8.52;;;11.40;99.90;;;;;;5002315;28;20086;-55
2022/04/23 03:32:59;;;;;;;19.15;9.27;;;11.50;99.90;;;;;;5000454;28;20081;-58
2022/04/23 03:35:26;;;;;;;30.55;10.52;;;11.50;99.90;;;;;;5010301;28;20281;-57
2022/04/23 03:37:55;;;;;;;26.48;9.75;;;11.50;99.90;;;;;;5015317;28;20045;-56
2022/04/23 03:40:23;;;;;;;27.63;9.52;;;11.50;99.90;;;;;;5013751;28;20033;-56
2022/04/23 03:42:50;;;;;;;25.02;9.88;;;11.40;99.90;;;;;;5005268;28;20500;-55
2022/04/23 03:45:18;;;;;;;27.10;10.07;;;11.40;99.90;;;;;;5002827;28;20121;-57
2022/04/23 03:47:46;;;;;;;21.70;9.80;;;11.40;99.90;;;;;;5002569;28;20050;-57
2022/04/23 03:50:13;;;;;;;22.58;10.55;;;11.40;99.90;;;;;;5004142;28;20069;-56
2022/04/23 03:52:40;;;;;;;22.13;10.23;;;11.40;99.90;;;;;;4984177;28;20061;-57
2022/04/23 03:55:07;;;;;;;22.40;10.55;;;11.40;99.90;;;;;;4996842;28;20054;-58
2022/04/23 03:57:45;;;;;;;23.80;10.65;;;11.40;99.90;;;;;;5002934;28;20049;-57
2022/04/23 04:00:13;;;;;;;25.30;11.23;;;11.40;99.90;;;;;;5004497;28;20056;-58
2022/04/23 04:02:40;;;;;;;33.47;10.27;;;11.40;99.90;;;;;;4992897;28;20069;-55
2022/04/23 04:05:07;;;;;;;21.75;10.38;;;11.40;99.90;;;;;;4990015;28;20432;-55
2022/04/23 04:07:34;;;;;;;26.63;11.18;;;11.30;99.90;;;;;;4990442;28;20050;-58
2022/04/23 04:10:01;;;;;;;38.17;12.70;;;11.30;99.90;;;;;;4990199;28;20101;-58
2022/04/23 04:12:28;;;;;;;22.50;11.23;;;11.40;99.90;;;;;;4990202;28;20093;-57
2022/04/23 04:14:54;;;;;;;29.65;12.48;;;11.40;99.90;;;;;;4990221;28;20109;-57
2022/04/23 04:17:21;;;;;;;25.23;10.85;;;11.40;99.90;;;;;;4990147;28;20052;-57
2022/04/23 04:19:48;;;;;;;25.30;11.95;;;11.30;99.90;;;;;;4989853;28;20450;-57
2022/04/23 04:22:15;;;;;;;26.60;11.63;;;11.30;99.90;;;;;;4989330;28;20477;-57
2022/04/23 04:24:41;;;;;;;20.05;11.77;;;11.30;99.90;;;;;;4990801;28;20177;-57
2022/04/23 04:27:08;;;;;;;22.98;12.32;;;11.40;99.90;;;;;;4995751;28;20135;-56
2022/04/23 04:29:35;;;;;;;18.77;11.15;;;11.40;99.90;;;;;;4993874;28;20097;-55
2022/04/23 04:32:02;;;;;;;23.40;11.40;;;11.40;99.90;;;;;;5003887;28;20066;-56
2022/04/23 04:34:29;;;;;;;24.75;11.35;;;11.40;99.90;;;;;;5009673;28;20057;-55
2022/04/23 04:37:07;;;;;;;24.23;12.10;;;11.40;99.90;;;;;;5005377;28;20042;-55
2022/04/23 04:39:38;;;;;;;26.63;12.13;;;11.40;99.90;;;;;;5003833;28;20046;-57
2022/04/23 04:42:05;;;;;;;25.45;13.05;;;11.40;99.90;;;;;;4993714;28;20487;-55
2022/04/23 04:44:32;;;;;;;26.27;13.23;;;11.50;99.90;;;;;;4989698;28;20453;-55
2022/04/23 04:47:00;;;;;;;20.75;11.27;;;11.50;99.90;;;;;;4991723;28;20058;-57
2022/04/23 04:49:26;;;;;;;25.98;11.25;;;11.50;99.90;;;;;;4994578;28;20085;-56
2022/04/23 04:51:53;;;;;;;19.98;10.75;;;11.50;99.90;;;;;;5003223;28;20493;-59
2022/04/23 04:54:21;;;;;;;24.42;12.95;;;11.50;99.90;;;;;;5005787;28;20042;-57
2022/04/23 04:56:51;;;;;;;33.78;12.88;;;11.50;99.90;;;;;;5000896;28;20275;-55
2022/04/23 04:59:18;;;;;;;25.38;11.52;;;11.50;99.90;;;;;;5013482;28;20034;-58
2022/04/23 05:01:45;;;;;;;24.10;13.90;;;11.50;99.90;;;;;;5008052;28;20038;-58
2022/04/23 05:04:12;;;;;;;23.77;11.52;;;11.50;99.90;;;;;;5003727;28;20113;-58
2022/04/23 05:06:38;;;;;;;27.40;13.05;;;11.50;99.90;;;;;;5004490;28;20046;-54
2022/04/23 05:09:05;;;;;;;18.35;10.77;;;11.60;99.90;;;;;;5005427;28;20053;-57
2022/04/23 05:11:32;;;;;;;20.38;11.88;;;11.60;99.90;;;;;;4999236;28;20073;-58
2022/04/23 05:13:59;;;;;;;25.50;11.38;;;11.60;99.90;;;;;;4995717;28;20137;-57
2022/04/23 05:16:26;;;;;;;17.33;9.35;;;11.60;99.90;;;;;;4995347;28;20043;-57
2022/04/23 05:18:52;;;;;;;15.25;10.13;;;11.60;99.90;;;;;;4995163;28;20050;-56
2022/04/23 05:21:19;;;;;;;21.70;10.77;;;11.60;99.90;;;;;;4994263;28;20133;-54
2022/04/23 05:23:46;;;;;;;18.60;9.75;;;11.60;99.90;;;;;;4993778;28;20081;-57
2022/04/23 05:26:13;;;;;;;20.60;10.00;;;11.60;99.90;;;;;;4994412;28;20129;-58
2022/04/23 05:28:41;;;;;;;17.45;10.15;;;11.50;99.90;;;;;;4997617;28;20054;-59
2022/04/23 05:31:08;;;;;;;20.17;10.60;;;11.60;99.90;;;;;;4999347;28;20533;-57
2022/04/23 05:33:35;;;;;;;20.85;10.10;;;11.60;99.90;;;;;;4999011;28;20046;-58
2022/04/23 05:36:06;;;;;;;16.67;10.02;;;11.60;99.90;;;;;;4999176;28;20054;-57
2022/04/23 05:38:36;;;;;;;22.58;9.93;;;11.60;99.90;;;;;;5000576;28;20046;-58
2022/04/23 05:41:03;;;;;;;19.23;10.27;;;11.60;99.90;;;;;;4998122;28;20059;-57
2022/04/23 05:43:30;;;;;;;25.25;10.45;;;11.60;99.90;;;;;;4998752;28;20053;-58
2022/04/23 05:45:59;;;;;;;13.73;9.80;;;11.60;99.90;;;;;;5003631;28;20058;-59
2022/04/23 05:48:27;;;;;;;19.77;10.05;;;11.60;99.90;;;;;;5003141;28;20050;-56
2022/04/23 05:50:54;;;;;;;17.85;10.27;;;11.60;99.90;;;;;;5003653;28;20057;-59
2022/04/23 05:53:20;;;;;;;21.88;11.90;;;11.60;99.90;;;;;;5000195;28;20112;-59
2022/04/23 05:55:47;;;;;;;19.83;8.77;;;11.60;99.90;;;;;;4990885;28;20093;-55
2022/04/23 05:58:14;;;;;;;16.52;8.93;;;11.60;99.90;;;;;;4990646;28;20556;-57
2022/04/23 06:00:41;;;;;;;20.10;8.80;;;11.50;99.90;;;;;;4991663;28;20137;-57
2022/04/23 06:03:08;;;;;;;20.77;8.52;;;11.60;99.90;;;;;;4991260;28;20116;-58
2022/04/23 06:05:35;;;;;;;26.00;10.50;;;11.60;99.90;;;;;;4991400;28;20398;-58
2022/04/23 06:08:01;;;;;;;16.20;8.90;;;11.60;99.90;;;;;;4991223;28;20078;-58
2022/04/23 06:10:28;;;;;;;16.67;7.80;;;11.60;99.90;;;;;;4990762;28;20046;-58
2022/04/23 06:12:55;;;;;;;23.48;8.82;;;11.60;99.90;;;;;;4991402;28;20126;-57
2022/04/23 06:15:22;;;;;;;18.90;8.55;;;11.70;99.90;;;;;;4990503;28;20137;-58
2022/04/23 06:17:48;;;;;;;14.88;8.38;;;11.70;99.90;;;;;;4991264;28;20176;-60
2022/04/23 06:20:16;;;;;;;18.08;8.27;;;11.70;99.90;;;;;;4990725;28;20054;-58
2022/04/23 06:22:42;;;;;;;14.32;7.93;;;11.70;99.90;;;;;;4990874;28;20085;-57
2022/04/23 06:25:09;;;;;;;17.48;8.63;;;11.70;99.90;;;;;;4990548;28;20054;-59
2022/04/23 06:27:37;;;;;;;23.52;8.27;;;11.80;99.90;;;;;;4991364;28;20092;-58
2022/04/23 06:30:05;;;;;;;12.85;7.15;;;11.80;99.90;;;;;;4991068;28;20050;-58
2022/04/23 06:32:32;;;;;;;15.27;7.88;;;11.80;99.90;;;;;;4991243;28;20082;-55
2022/04/23 06:34:58;;;;;;;18.02;8.25;;;11.90;99.90;;;;;;4990852;28;20513;-58
2022/04/23 06:37:25;;;;;;;20.63;9.05;;;11.80;99.90;;;;;;4991455;28;20117;-57
2022/04/23 06:39:52;;;;;;;14.80;8.45;;;11.80;99.90;;;;;;4990787;28;20046;-57
2022/04/23 06:42:19;;;;;;;20.73;9.60;;;11.70;99.90;;;;;;4986222;28;20081;-57
2022/04/23 06:44:46;;;;;;;25.55;10.27;;;11.70;99.90;;;;;;4976945;28;20077;-56
2022/04/23 06:47:14;;;;;;;19.38;8.23;;;11.70;99.90;;;;;;4990239;28;20131;-57
2022/04/23 06:49:41;;;;;;;23.30;9.38;;;11.70;99.90;;;;;;4981837;28;20512;-57
2022/04/23 06:52:08;;;;;;;14.38;8.85;;;11.70;99.90;;;;;;4984483;28;20133;-57
2022/04/23 06:54:34;;;;;;;20.25;8.57;;;11.70;99.90;;;;;;4995686;28;20105;-57
2022/04/23 06:57:01;;;;;;;23.38;8.52;;;11.70;99.90;;;;;;4978236;28;20473;-59
2022/04/23 06:59:29;;;;;;;14.20;8.75;;;11.70;99.90;;;;;;4988717;28;20104;-57
2022/04/23 07:02:01;;;;;;;18.23;9.55;;;11.60;99.90;;;;;;4983915;28;20070;-58
2022/04/23 07:04:29;;;;;;;20.67;9.48;;;11.60;99.90;;;;;;4978536;28;20061;-59
2022/04/23 07:06:56;;;;;;;25.20;9.45;;;11.60;99.90;;;;;;4983630;28;20565;-58
2022/04/23 07:09:23;;;;;;;22.15;9.18;;;11.70;99.90;;;;;;4981416;28;20105;-58
2022/04/23 07:11:50;;;;;;;17.42;9.55;;;11.70;99.90;;;;;;4983339;28;20125;-56
2022/04/23 07:14:17;;;;;;;20.35;10.23;;;11.80;99.90;;;;;;4979262;28;20074;-56
2022/04/23 07:16:44;;;;;;;20.48;9.73;;;11.80;99.90;;;;;;4978811;28;20605;-60
2022/04/23 07:19:11;;;;;;;23.98;9.38;;;11.80;99.90;;;;;;4986339;28;20056;-58
2022/04/23 07:21:38;;;;;;;24.10;10.02;;;11.80;99.90;;;;;;4988660;28;20050;-58
2022/04/23 07:24:05;;;;;;;23.65;10.13;;;11.80;99.90;;;;;;4988863;28;20042;-57
2022/04/23 07:26:34;;;;;;;29.30;12.00;;;11.90;99.90;;;;;;4988185;28;20464;-56
2022/04/23 07:29:03;;;;;;;19.48;9.02;;;11.90;99.90;;;;;;4988785;28;20046;-57
2022/04/23 07:31:30;;;;;;;26.55;10.07;;;12.00;99.90;;;;;;4988566;28;20061;-58
2022/04/23 07:39:27;;;;;;;25.50;9.95;;;12.30;99.90;;;;;;4988209;28;20054;-58
2022/04/23 07:41:54;;;;;;;20.33;9.98;;;12.50;99.90;;;;;;4988303;28;20046;-57
2022/04/23 07:44:22;;;;;;;20.15;10.75;;;12.60;99.90;;;;;;4988468;28;20197;-57
2022/04/23 07:46:49;;;;;;;15.88;9.52;;;12.70;99.90;;;;;;4988572;28;20049;-57
2022/04/23 07:49:17;;;;;;;21.85;10.52;;;12.80;99.90;;;;;;4983917;28;20058;-57
2022/04/23 07:51:46;;;;;;;18.92;9.80;;;12.80;99.90;;;;;;4977544;28;20097;-59
2022/04/23 07:54:14;;;;;;;18.30;9.90;;;12.90;99.90;;;;;;4983002;28;20565;-59
2022/04/23 07:56:41;;;;;;;24.40;11.52;;;13.00;99.90;;;;;;4974071;28;20149;-56
2022/04/23 07:59:09;;;;;;;22.77;11.93;;;13.00;99.90;;;;;;4983818;28;20433;-57
2022/04/23 08:01:36;;;;;;;20.13;10.98;;;12.90;99.90;;;;;;4987286;28;20089;-58
2022/04/23 08:04:03;;;;;;;20.92;10.73;;;12.90;99.90;;;;;;4987664;28;20038;-60
2022/04/23 08:06:31;;;;;;;19.80;10.85;;;13.00;99.90;;;;;;4987634;28;20497;-57
2022/04/23 08:08:58;;;;;;;19.27;10.90;;;13.20;99.90;;;;;;4987835;28;20074;-58
2022/04/23 08:11:25;;;;;;;25.10;11.15;;;13.20;99.90;;;;;;4986895;28;20082;-57
2022/04/23 08:13:52;;;;;;;21.98;11.90;;;13.40;99.90;;;;;;4987901;28;20519;-57
2022/04/23 08:16:19;;;;;;;22.05;11.43;;;13.40;99.90;;;;;;4988026;28;20121;-55
2022/04/23 08:18:46;;;;;;;21.00;11.63;;;13.50;99.90;;;;;;4987066;28;20050;-58
2022/04/23 08:21:13;;;;;;;26.33;13.10;;;13.50;99.90;;;;;;4988161;28;20050;-57
2022/04/23 08:23:39;;;;;;;22.48;11.70;;;13.40;99.90;;;;;;4987525;28;20077;-57
2022/04/23 08:26:06;;;;;;;24.88;12.00;;;13.40;99.90;;;;;;4986980;28;20046;-57
2022/04/23 08:31:18;;;;;;;21.15;11.18;;;13.60;99.90;;;;;;4988224;28;20046;-59
2022/04/23 08:34:00;;;;;;;17.58;11.38;;;13.70;99.90;;;;;;4987976;28;20104;-60
2022/04/23 08:36:35;;;;;;;22.45;12.88;;;13.60;99.90;;;;;;4988207;28;20077;-57
2022/04/23 08:39:06;;;;;;;20.42;11.77;;;13.60;99.90;;;;;;4986543;28;20123;-57
2022/04/23 08:41:34;;;;;;;18.73;11.63;;;13.60;99.90;;;;;;4986120;28;20057;-60
2022/04/23 08:44:07;;;;;;;;;;;13.50;99.90;;;;;;4986601;28;20073;-59
2022/04/23 08:46:40;;;;;;;21.20;12.18;;;13.40;99.90;;;;;;4985821;28;19922;-59
2022/04/23 08:49:14;;;;;;;21.33;12.63;;;13.40;99.90;;;;;;4985690;28;20054;-59
2022/04/23 08:51:43;;;;;;;23.20;14.05;;;13.40;99.90;;;;;;4984866;28;20046;-59
2022/04/23 08:54:11;;;;;;;26.75;13.57;;;13.50;99.90;;;;;;4985941;28;20178;-59
2022/04/23 08:56:40;;;;;;;20.15;12.77;;;13.50;99.90;;;;;;4985056;28;20101;-59
2022/04/23 08:59:07;;;;;;;22.98;13.98;;;13.60;99.90;;;;;;4985751;28;20146;-59
2022/04/23 09:01:35;;;;;;;25.52;13.75;;;13.60;99.90;;;;;;4987338;28;20108;-57
2022/04/23 09:04:02;;;;;;;21.38;13.10;;;13.70;99.90;;;;;;4986268;28;20046;-59
2022/04/23 09:06:37;;;;;;;18.17;13.65;;;13.70;99.90;;;;;;4986518;28;20061;-60
2022/04/23 09:09:22;;;;;;;24.60;14.00;;;13.80;99.90;;;;;;4987697;28;20054;-60
2022/04/23 09:11:53;;;;;;;20.58;12.82;;;13.80;99.90;;;;;;4988024;28;20141;-59
2022/04/23 09:14:35;;;;;;;28.42;14.70;;;13.80;99.90;;;;;;4987891;28;20480;-59
2022/04/23 09:25:35;;;;;;;20.85;13.70;;;13.90;99.90;;;;;;4991857;28;20051;-60
2022/04/23 09:28:15;;;;;;;24.38;14.80;;;13.90;99.90;;;;;;4992031;28;20543;-57
2022/04/23 09:30:42;;;;;;;28.98;14.70;;;13.90;99.90;;;;;;4990314;28;20552;-59
2022/04/23 09:33:09;;;;;;;22.42;13.95;;;14.00;99.90;;;;;;4989543;28;20454;-59
2022/04/23 09:35:50;;;;;;;30.92;16.35;;;14.00;99.90;;;;;;4988775;28;20647;-59
2022/04/23 09:38:20;;;;;;;19.92;13.30;;;13.90;99.90;;;;;;4989174;28;20085;-60
2022/04/23 09:40:53;;;;;;;20.95;14.68;;;14.00;99.90;;;;;;4989306;28;20108;-60
2022/04/23 09:43:28;;;;;;;20.10;14.00;;;14.10;99.90;;;;;;4989971;28;20133;-59
2022/04/23 09:46:10;;;;;;;24.70;13.27;;;14.10;99.90;;;;;;4988831;28;20093;-59
2022/04/23 09:48:38;;;;;;;23.58;15.85;;;14.20;99.90;;;;;;4990105;28;20303;-60
2022/04/23 09:51:19;;;;;;;27.20;14.57;;;14.20;99.90;;;;;;4989661;28;20050;-60
2022/04/23 09:53:46;;;;;;;20.75;13.98;;;14.40;99.90;;;;;;4991612;28;20146;-59
2022/04/23 09:56:13;;;;;;;22.50;13.93;;;14.40;99.90;;;;;;4989439;28;20246;-58
2022/04/23 09:58:40;;;;;;;19.67;13.55;;;14.50;99.90;;;;;;4990262;28;20336;-58
2022/04/23 10:01:07;;;;;;;25.75;15.18;;;14.50;99.90;;;;;;4990521;28;20050;-59
2022/04/23 10:03:34;;;;;;;27.23;15.05;;;14.60;99.90;;;;;;4990607;28;20050;-60
2022/04/23 10:06:02;;;;;;;24.27;14.05;;;14.60;99.90;;;;;;4991464;28;20056;-59
2022/04/23 10:08:30;;;;;;;22.15;16.48;;;14.80;99.90;;;;;;4991655;28;20046;-59
2022/04/23 10:11:09;;;;;;;21.95;14.40;;;14.80;99.90;;;;;;4991813;28;20050;-60
2022/04/23 10:13:36;;;;;;;26.85;15.85;;;14.80;99.90;;;;;;4991909;28;20202;-59
2022/04/23 10:16:03;;;;;;;27.98;15.18;;;14.80;99.90;;;;;;4990431;28;20058;-59
2022/04/23 10:18:32;;;;;;;23.08;15.82;;;14.80;99.90;;;;;;4989970;28;20035;-59
2022/04/23 10:21:02;;;;;;;27.85;14.60;;;14.90;99.90;;;;;;4991843;28;20631;-60
2022/04/23 10:23:42;;;;;;;28.63;15.73;;;15.10;99.90;;;;;;4990006;28;20165;-58
2022/04/23 10:26:15;;;;;;;25.92;14.52;;;15.20;99.90;;;;;;4991239;28;20575;-59
2022/04/23 10:28:45;;;;;;;24.13;14.77;;;15.50;99.90;;;;;;4991390;28;20085;-59
2022/04/23 10:31:16;;;;;;;23.20;15.63;;;15.60;99.90;;;;;;4990051;28;20136;-58
2022/04/23 10:33:52;;;;;;;23.38;14.23;;;15.70;99.60;;;;;;4990072;28;20049;-57
2022/04/23 10:36:20;;;;;;;24.00;15.13;;;15.70;99.10;;;;;;5006188;28;20137;-59
2022/04/23 10:38:53;;;;;;;22.27;14.35;;;15.60;99.40;;;;;;4990860;28;20462;-60
2022/04/23 10:41:22;;;;;;;24.17;15.18;;;15.60;99.20;;;;;;4970326;28;20065;-61
2022/04/23 10:44:04;;;;;;;25.58;13.75;;;15.70;99.10;;;;;;4986687;28;20043;-57
2022/04/23 10:46:50;;;;;;;28.25;14.88;;;15.70;98.80;;;;;;4988264;28;20089;-59
2022/04/23 10:49:22;;;;;;;21.75;16.15;;;15.60;98.90;;;;;;4990363;28;20109;-59
2022/04/23 10:51:56;;;;;;;20.63;13.73;;;15.50;98.60;;;;;;4990710;28;20137;-59
2022/04/23 10:54:44;;;;;;;21.85;15.40;;;15.50;98.80;;;;;;4990325;28;20084;-59
2022/04/23 10:57:13;;;;;;;24.48;14.93;;;15.40;98.30;;;;;;4990349;28;20504;-59
2022/04/23 10:59:47;;;;;;;22.92;14.93;;;15.50;99.20;;;;;;4990119;28;20070;-59
2022/04/23 11:02:24;;;;;;;26.50;14.35;;;15.60;98.30;;;;;;4989395;28;20421;-60
2022/04/23 11:13:38;;;;;;;20.73;15.05;;;15.30;97.70;;;;;;4987697;28;20046;-60
2022/04/23 11:16:13;;;;;;;24.40;15.07;;;15.40;98.50;;;;;;4990056;28;20082;-60
2022/04/23 11:18:41;;;;;;;21.98;14.00;;;15.50;98.50;;;;;;4641997;28;10000587;-59
2022/04/23 11:21:13;;;;;;;25.15;15.55;;;15.50;97.70;;;;;;4987106;28;20054;-59
2022/04/23 11:23:45;;;;;;;22.80;14.93;;;15.40;97.20;;;;;;4987554;28;20141;-59
2022/04/23 11:26:17;;;;;;;23.38;15.50;;;15.50;97.80;;;;;;4986208;28;20509;-58
2022/04/23 11:28:50;;;;;;;21.42;14.43;;;15.60;96.90;;;;;;4986461;28;20136;-58
2022/04/23 11:31:17;;;;;;;22.40;14.13;;;15.50;97.20;;;;;;4983104;28;20051;-59
2022/04/23 11:34:00;;;;;;;19.27;14.35;;;15.50;97.50;;;;;;4987093;28;20046;-58
2022/04/23 11:36:30;;;;;;;16.75;12.90;;;15.60;96.20;;;;;;4987305;28;20577;-59
2022/04/23 11:38:59;;;;;;;17.92;13.50;;;15.80;96.20;;;;;;4987452;28;20050;-58
2022/04/23 11:41:49;;;;;;;17.45;12.93;;;15.90;95.80;;;;;;4984963;28;20501;-58
2022/04/23 11:47:12;;;;;;;17.73;12.80;;;16.00;96.70;;;;;;4976345;28;20046;-59
2022/04/23 11:49:39;;;;;;;21.38;12.63;;;16.20;95.60;;;;;;4987005;28;20082;-57
2022/04/23 11:52:10;;;;;;;21.05;12.90;;;16.20;95.20;;;;;;4986814;28;20794;-58
2022/04/23 11:54:37;;;;;;;20.25;13.18;;;16.20;95.70;;;;;;4986515;28;20042;-58
2022/04/23 11:57:07;;;;;;;17.85;12.90;;;16.30;95.50;;;;;;4986188;28;20086;-58
2022/04/23 11:59:44;;;;;;;21.83;13.80;;;16.50;94.20;;;;;;4986538;28;20795;-60
2022/04/23 12:02:17;;;;;;;19.55;12.18;;;16.60;93.40;;;;;;4985994;28;20077;-57
2022/04/23 12:04:45;;;;;;;20.63;13.75;;;16.60;93.50;;;;;;4985870;28;20050;-58
2022/04/23 12:07:12;;;;;;;20.67;14.95;;;16.80;95.30;;;;;;4986265;28;20104;-59
2022/04/23 12:09:50;;;;;;;24.63;14.23;;;16.90;95.40;;;;;;4981019;28;20058;-59
2022/04/23 12:12:20;;;;;;;19.13;13.13;;;16.90;94.80;;;;;;4985163;28;20128;-58
2022/04/23 12:14:53;;;;;;;17.63;13.07;;;17.00;95.70;;;;;;4967442;28;20093;-58
2022/04/23 12:17:21;;;;;;;20.38;13.18;;;16.90;94.80;;;;;;4982805;28;20090;-59
2022/04/23 12:19:51;;;;;;;21.05;13.13;;;16.90;94.30;;;;;;4986282;28;20080;-58
2022/04/23 12:22:24;;;;;;;18.13;13.43;;;16.80;94.40;;;;;;4986379;28;20082;-59
2022/04/23 12:25:09;;;;;;;16.83;12.05;;;16.70;94.10;;;;;;4967435;28;20089;-58
2022/04/23 12:27:58;;;;;;;18.77;12.63;;;16.70;93.50;;;;;;4984428;28;20050;-59
2022/04/23 12:41:58;;;;;;;20.67;13.38;;;16.70;93.20;;;;;;4985723;28;20480;-59
2022/04/23 12:44:30;;;;;;;20.95;12.05;;;16.70;94.00;;;;;;4986147;28;20142;-57
2022/04/23 12:46:58;;;;;;;16.30;12.75;;;16.80;94.70;;;;;;4985856;28;20053;-58
2022/04/23 12:49:45;;;;;;;17.85;11.90;;;16.90;93.80;;;;;;4986429;28;20050;-58
2022/04/23 12:52:33;;;;;;;18.95;12.23;;;16.80;93.00;;;;;;4984582;28;20050;-57
2022/04/23 12:55:17;;;;;;;19.98;11.80;;;16.90;93.80;;;;;;4984466;28;20598;-57
2022/04/23 12:57:50;;;;;;;19.92;12.27;;;16.90;93.50;;;;;;4981012;28;20072;-57
2022/04/23 13:00:23;;;;;;;18.37;12.43;;;17.00;94.70;;;;;;4982662;28;20136;-59
2022/04/23 13:02:57;;;;;;;18.42;12.13;;;17.00;92.90;;;;;;4985799;28;20443;-58
2022/04/23 13:05:25;;;;;;;21.40;13.13;;;16.90;94.10;;;;;;4982665;28;20046;-61
2022/04/23 13:10:37;;;;;;;20.30;11.80;;;17.20;94.40;;;;;;4985581;28;20145;-60
2022/04/23 13:13:07;;;;;;;18.48;12.18;;;17.30;94.20;;;;;;4979786;28;20053;-57
2022/04/23 13:15:35;;;;;;;15.55;11.43;;;17.30;93.00;;;;;;4974797;28;20128;-58
2022/04/23 13:18:03;;;;;;;22.73;11.75;;;17.20;93.90;;;;;;4979110;28;20058;-59
2022/04/23 13:20:30;;;;;;;22.10;12.73;;;17.10;93.60;;;;;;4982887;28;20134;-59
2022/04/23 13:22:58;;;;;;;17.85;11.48;;;17.00;94.30;;;;;;4971029;28;20077;-58
2022/04/23 13:25:25;;;;;;;18.13;11.40;;;17.00;93.80;;;;;;4979546;28;20046;-59